Rocky Mount, VA

3:52 PM EDT on September 01, 2014 (GMT -0400)
Doe Run | Change Station
CLOSE
Current Station
Personal Weather Station
Location: Rocky Mount, VA
Elevation: 1099 ft
Nearby Weather Stations

Elev 1099 ft 36.97 °N, 79.85 °W | Updated 5 minutes ago

Partly Cloudy
Partly Cloudy
84.9 °F
Feels Like 94 °F
N
2.2
Wind Variable Wind from South

Today
High -- | Low -- °F
--% Chance of Precip.
Yesterday
High -- | Low -- °F
Precip. -- in
6:50 AM 7:48 PM
Waxing Crescent, 43% visible
Pressure 30.05 in
Visibility 10.0 miles
Clouds Few 5500 ft
Scattered Clouds 7500 ft
Scattered Clouds 25000 ft
Heat Index 94 °F
Dew Point 76 °F
Humidity 75%
Rainfall 0.00 in
Snow Depth Not available.
UV 7 out of 12
Pollen 10.30 out of 12
Air Quality Not available.
Flu Activity Not available.
METAR KROA 011854Z 30006KT 10SM FEW055 SCT075 SCT250 31/18 A3009 RMK AO2 SLP174 T03060183

More Conditions Fewer Conditions

Pressure 30.05 in
Visibility 10.0 miles
Clouds Few 5500 ft
Scattered Clouds 7500 ft
Scattered Clouds 25000 ft
Heat Index 94 °F
Dew Point 76 °F
Humidity 75%
Rainfall 0.00 in
Snow Depth Not available.
UV 7 out of 12
Pollen 10.30 out of 12
Air Quality Not available.
Flu Activity Not available.
METAR KROA 011854Z 30006KT 10SM FEW055 SCT075 SCT250 31/18 A3009 RMK AO2 SLP174 T03060183

More Conditions Fewer Conditions

10-Day Weather Forecast

Almanac

Astronomy

Sep. 01, 2014 Rise Set
Actual Time 6:50 AM EDT 7:48 PM EDT
Civil Twilight 6:23 AM EDT 8:14 PM EDT
Nautical Twilight 5:52 AM EDT 8:46 PM EDT
Astronomical Twilight 5:19 AM EDT 9:18 PM EDT
Moon 1:24 PM EDT 11:57 PM EDT
Length of Visible Light 13h 50m
Length of Day
12h 57m
Tomorrow will be 2m 16s shorter.
Waxing Crescent, 43% of the Moon is Illuminated
Today
Waxing Crescent
Sep 2
First Quarter
Sep 8
Full
Sep 15
Last Quarter
Sep 24
New

Today's Extremes

State Highs State Lows

Community

WunderPhotos

Upload Photos

1,749,387 photos uploaded!

WunderBlogs® & News

Nearby

Snow Depth

Station Depth Elevation
No new snow has been reported.

Earthquake Activity

City Distance Mag. Time & Date
No recent earthquake activity has been reported nearby.
Minimum magnitude displayed is 2.5.

Coastal Water Temperatures

Place Temperature
No Stations Reporting

Nearby Weather Stations